Time,TemperatureF,DewpointF,PressureIn,WindDirection,WindDirectionDegrees,WindSpeedMPH,WindSpeedGustMPH,Humidity,HourlyPrecipIn,Conditions,Clouds,dailyrainin,SoftwareType,DateUTC
2013-06-01 00:00:00,46.4,7.3,0.00,SE,135,0.0,14.4,20,0.00,,---,0.00,VWS V14.01,2013-06-01 06:00:00,
2013-06-01 00:05:00,55.1,-7.6,2.14,ENE,76,0.0,9.4,7,0.00,,---,0.00,VWS V14.01,2013-06-01 06:05:00,
2013-06-01 00:06:00,46.4,6.8,0.00,SE,135,0.0,0.0,19,0.00,,---,0.30,VWS V14.01,2013-06-01 06:06:00,
2013-06-01 00:09:00,52.7,42.2,100.00,SE,135,0.0,0.0,67,0.00,,---,99.99,VWS V14.01,2013-06-01 06:09:00,
2013-06-01 00:20:00,56.9,37.5,30.25,NE,38,0.0,3.1,48,0.00,,---,5.85,VWS V14.01,2013-06-01 06:20:00,
2013-06-01 00:21:00,55.6,-26.8,30.24,SSE,149,0.0,3.2,3,0.00,,---,7.26,VWS V14.01,2013-06-01 06:21:00,
2013-06-01 00:23:00,71.2,40.9,0.00,SE,135,0.0,0.0,33,0.00,,---,99.99,VWS V14.01,2013-06-01 06:23:00,
2013-06-01 00:27:00,59.2,17.7,30.09,North,359,6.6,6.6,20,0.00,,---,0.00,VWS V14.01,2013-06-01 06:27:00,
2013-06-01 00:32:00,58.1,23.8,30.09,ENE,60,0.0,0.0,26,0.00,,---,0.00,VWS V14.01,2013-06-01 06:32:00,
2013-06-01 00:37:00,57.1,26.5,30.10,ESE,104,0.0,0.0,31,0.00,,---,0.00,VWS V14.01,2013-06-01 06:37:00,
2013-06-01 00:39:00,71.1,48.2,0.00,North,7,5.2,6.0,44,0.00,,---,0.00,VWS V14.01,2013-06-01 06:39:00,
2013-06-01 00:40:00,57.4,35.3,30.25,ENE,68,3.2,11.7,43,0.00,,---,7.26,VWS V14.01,2013-06-01 06:40:00,
2013-06-01 00:42:00,56.2,28.1,30.11,SSE,160,0.0,0.0,34,0.00,,---,0.00,VWS V14.01,2013-06-01 06:42:00,
2013-06-01 00:47:00,55.6,28.9,30.11,ESE,104,4.5,5.8,36,0.00,,---,0.00,VWS V14.01,2013-06-01 06:47:00,
2013-06-01 00:52:00,55.0,29.8,30.11,ESE,111,0.0,0.0,38,0.00,,---,0.00,VWS V14.01,2013-06-01 06:52:00,
2013-06-01 00:55:00,56.3,37.5,30.26,ENE,77,0.3,5.2,49,0.00,,---,5.78,VWS V14.01,2013-06-01 06:55:00,
2013-06-01 00:57:00,54.6,30.4,30.11,ESE,111,0.0,0.0,39,0.00,,---,0.00,VWS V14.01,2013-06-01 06:57:00,
2013-06-01 00:58:00,60.0,15.8,30.07,NNW,338,0.0,0.0,18,0.00,,---,0.00,VWS V14.01,2013-06-01 06:58:00,
2013-06-01 01:02:00,54.3,31.1,30.12,ENE,63,2.7,2.7,41,0.00,,---,0.00,VWS V14.01,2013-06-01 07:02:00,
2013-06-01 01:05:00,57.4,35.3,30.25,East,100,7.8,8.8,43,0.00,,---,5.89,VWS V14.01,2013-06-01 07:05:00,
2013-06-01 01:07:00,54.3,31.8,30.12,East,89,0.0,0.0,42,0.00,,---,0.00,VWS V14.01,2013-06-01 07:07:00,
2013-06-01 01:10:00,54.9,38.4,30.25,ENE,62,3.4,6.3,54,0.00,,---,0.23,VWS V14.01,2013-06-01 07:10:00,
2013-06-01 01:13:00,54.0,32.4,30.11,East,84,0.0,0.0,44,0.00,,---,0.00,VWS V14.01,2013-06-01 07:13:00,
2013-06-01 01:18:00,53.8,33.1,30.12,East,84,0.0,0.0,45,0.00,,---,0.00,VWS V14.01,2013-06-01 07:18:00,
2013-06-01 01:20:00,57.4,35.3,30.25,NE,34,2.9,8.0,43,0.00,,---,2.14,VWS V14.01,2013-06-01 07:20:00,
2013-06-01 01:23:00,53.8,33.6,30.12,SE,135,0.0,0.0,46,0.00,,---,0.00,VWS V14.01,2013-06-01 07:23:00,
2013-06-01 01:28:00,53.7,33.8,30.12,SE,135,0.0,0.0,47,0.00,,---,0.00,VWS V14.01,2013-06-01 07:28:00,
2013-06-01 01:33:00,53.5,34.0,30.12,SE,135,0.0,0.0,48,0.00,,---,0.00,VWS V14.01,2013-06-01 07:33:00,
2013-06-01 01:36:00,47.2,39.1,30.17,SE,135,0.0,1.4,73,0.00,,---,0.00,VWS V14.01,2013-06-01 07:36:00,
2013-06-01 01:38:00,53.3,34.3,30.12,SE,135,0.0,0.0,48,0.00,,---,0.00,VWS V14.01,2013-06-01 07:38:00,
2013-06-01 01:43:00,53.1,34.6,30.12,SE,135,0.0,0.0,49,0.00,,---,0.00,VWS V14.01,2013-06-01 07:43:00,
2013-06-01 01:48:00,52.9,34.7,30.13,SE,135,0.0,0.0,50,0.00,,---,0.00,VWS V14.01,2013-06-01 07:48:00,
2013-06-01 01:50:00,54.7,39.7,30.25,SSE,166,7.0,7.0,57,0.00,,---,0.00,VWS V14.01,2013-06-01 07:50:00,
2013-06-01 01:54:00,52.8,35.0,30.13,SE,135,0.0,0.0,51,0.00,,---,0.00,VWS V14.01,2013-06-01 07:54:00,
2013-06-01 01:59:00,52.6,35.2,30.13,SE,135,0.0,0.0,51,0.00,,---,0.00,VWS V14.01,2013-06-01 07:59:00,
2013-06-01 02:04:00,52.3,35.2,30.13,SE,135,0.0,0.0,52,0.00,,---,0.00,VWS V14.01,2013-06-01 08:04:00,
2013-06-01 02:09:00,52.1,35.4,30.13,SE,135,0.0,0.0,53,0.00,,---,0.00,VWS V14.01,2013-06-01 08:09:00,
2013-06-01 02:14:00,51.9,35.8,30.13,SE,135,0.0,0.0,54,0.00,,---,0.00,VWS V14.01,2013-06-01 08:14:00,
2013-06-01 02:19:00,51.7,36.0,30.13,SE,135,0.0,0.0,55,0.00,,---,0.00,VWS V14.01,2013-06-01 08:19:00,
2013-06-01 02:24:00,51.5,36.2,30.13,SE,135,0.0,0.0,56,0.00,,---,0.00,VWS V14.01,2013-06-01 08:24:00,
2013-06-01 02:29:00,51.4,36.4,30.14,SE,135,0.0,0.0,56,0.00,,---,0.00,VWS V14.01,2013-06-01 08:29:00,
2013-06-01 02:31:00,47.3,8.4,0.00,SE,135,0.0,0.0,20,0.00,,---,2.81,VWS V14.01,2013-06-01 08:31:00,
2013-06-01 02:34:00,51.3,36.5,30.14,SE,135,0.0,0.0,57,0.00,,---,0.00,VWS V14.01,2013-06-01 08:34:00,
2013-06-01 02:39:00,51.3,36.8,30.14,SE,135,0.0,0.0,57,0.00,,---,0.00,VWS V14.01,2013-06-01 08:39:00,
2013-06-01 02:44:00,51.1,36.8,30.14,SE,135,0.0,0.0,58,0.00,,---,0.00,VWS V14.01,2013-06-01 08:44:00,
2013-06-01 02:49:00,50.7,37.1,30.14,SE,135,0.0,0.0,59,0.00,,---,0.00,VWS V14.01,2013-06-01 08:49:00,
2013-06-01 02:54:00,50.6,37.4,30.15,SE,135,0.0,0.0,60,0.00,,---,0.00,VWS V14.01,2013-06-01 08:54:00,
2013-06-01 02:59:00,50.4,37.4,30.14,SE,135,0.0,0.0,61,0.00,,---,0.00,VWS V14.01,2013-06-01 08:59:00,
2013-06-01 03:04:00,50.2,37.3,30.14,SE,135,0.0,0.0,61,0.00,,---,0.00,VWS V14.01,2013-06-01 09:04:00,
2013-06-01 03:09:00,49.9,37.4,30.14,SE,135,0.0,0.0,62,0.00,,---,0.00,VWS V14.01,2013-06-01 09:09:00,
2013-06-01 03:11:00,49.7,37.6,30.15,SE,135,0.0,0.0,63,0.00,,---,0.00,VWS V14.01,2013-06-01 09:11:00,
2013-06-01 03:12:00,49.7,37.6,30.15,SE,135,0.0,0.0,63,0.00,,---,0.00,VWS V14.01,2013-06-01 09:12:00,
2013-06-01 03:13:00,49.7,37.7,30.15,SE,135,0.0,0.0,63,0.00,,---,0.00,VWS V14.01,2013-06-01 09:13:00,
2013-06-01 03:14:00,49.8,37.4,30.14,SE,135,0.0,0.0,62,0.00,,---,0.00,VWS V14.01,2013-06-01 09:14:00,
2013-06-01 03:15:00,49.6,37.8,30.15,SE,135,0.0,0.0,64,0.00,,---,0.00,VWS V14.01,2013-06-01 09:15:00,
2013-06-01 03:16:00,49.5,37.8,30.15,SE,135,0.0,0.0,64,0.00,,---,0.00,VWS V14.01,2013-06-01 09:16:00,
2013-06-01 03:17:00,49.5,37.9,30.15,SE,135,0.0,0.0,64,0.00,,---,0.00,VWS V14.01,2013-06-01 09:17:00,
2013-06-01 03:18:00,49.5,37.9,30.14,SE,135,0.0,0.0,64,0.00,,---,0.00,VWS V14.01,2013-06-01 09:18:00,
2013-06-01 03:19:00,49.7,37.6,30.14,SE,135,0.0,0.0,63,0.00,,---,0.00,VWS V14.01,2013-06-01 09:19:00,
2013-06-01 03:20:00,49.4,37.9,30.15,SE,135,0.0,0.0,64,0.00,,---,0.00,VWS V14.01,2013-06-01 09:20:00,
2013-06-01 03:21:00,49.4,38.0,30.14,SE,135,0.0,0.0,64,0.00,,---,0.00,VWS V14.01,2013-06-01 09:21:00,
2013-06-01 03:22:00,49.4,38.0,30.15,SE,135,0.0,0.0,65,0.00,,---,0.00,VWS V14.01,2013-06-01 09:22:00,
2013-06-01 03:23:00,49.3,37.9,30.15,SE,135,0.0,0.0,65,0.00,,---,0.00,VWS V14.01,2013-06-01 09:23:00,
2013-06-01 03:24:00,49.3,38.0,30.15,SE,135,0.0,0.0,65,0.00,,---,0.00,VWS V14.01,2013-06-01 09:24:00,
2013-06-01 03:25:00,49.3,38.0,30.15,SE,135,0.0,0.0,65,0.00,,---,0.00,VWS V14.01,2013-06-01 09:25:00,
2013-06-01 03:26:00,49.3,38.2,30.15,SE,135,0.0,0.0,65,0.00,,---,0.00,VWS V14.01,2013-06-01 09:26:00,
2013-06-01 03:27:00,49.3,38.3,30.15,SE,135,0.0,0.0,66,0.00,,---,0.00,VWS V14.01,2013-06-01 09:27:00,
2013-06-01 03:28:00,49.3,38.4,30.15,SE,135,0.0,0.0,66,0.00,,---,0.00,VWS V14.01,2013-06-01 09:28:00,
2013-06-01 03:29:00,49.3,38.4,30.14,SE,135,0.0,0.0,66,0.00,,---,0.00,VWS V14.01,2013-06-01 09:29:00,
2013-06-01 03:30:00,49.3,38.4,30.15,SE,135,0.0,0.0,66,0.00,,---,0.00,VWS V14.01,2013-06-01 09:30:00,
2013-06-01 03:31:00,49.2,38.3,30.15,SE,135,0.0,0.0,66,0.00,,---,0.00,VWS V14.01,2013-06-01 09:31:00,
2013-06-01 03:32:00,49.2,38.3,30.15,SE,135,0.0,0.0,66,0.00,,---,0.00,VWS V14.01,2013-06-01 09:32:00,
2013-06-01 03:33:00,49.2,38.3,30.15,SE,135,0.0,0.0,66,0.00,,---,0.00,VWS V14.01,2013-06-01 09:33:00,
2013-06-01 03:34:00,49.2,38.3,30.14,SE,135,0.0,0.0,66,0.00,,---,0.00,VWS V14.01,2013-06-01 09:34:00,
2013-06-01 03:35:00,49.2,38.3,30.14,SE,135,0.0,0.0,66,0.00,,---,0.00,VWS V14.01,2013-06-01 09:35:00,
2013-06-01 03:36:00,49.1,38.3,30.14,SE,135,0.0,0.0,66,0.00,,---,0.00,VWS V14.01,2013-06-01 09:36:00,
2013-06-01 03:37:00,49.1,38.3,30.14,SE,135,0.0,0.0,66,0.00,,---,0.00,VWS V14.01,2013-06-01 09:37:00,
2013-06-01 03:38:00,49.1,38.3,30.14,SE,135,0.0,0.0,66,0.00,,---,0.00,VWS V14.01,2013-06-01 09:38:00,
2013-06-01 03:39:00,49.0,38.3,30.14,SE,135,0.0,0.0,66,0.00,,---,0.00,VWS V14.01,2013-06-01 09:39:00,
2013-06-01 03:40:00,49.0,38.3,30.14,SE,135,0.0,0.0,66,0.00,,---,0.00,VWS V14.01,2013-06-01 09:40:00,
2013-06-01 03:41:00,48.9,38.2,30.14,SE,135,0.0,0.0,66,0.00,,---,0.00,VWS V14.01,2013-06-01 09:41:00,
2013-06-01 03:42:00,48.9,38.2,30.14,SE,135,0.0,0.0,66,0.00,,---,0.00,VWS V14.01,2013-06-01 09:42:00,
2013-06-01 03:43:00,48.8,38.2,30.14,SE,135,0.0,0.0,67,0.00,,---,0.00,VWS V14.01,2013-06-01 09:43:00,
2013-06-01 03:44:00,48.8,38.3,30.14,SE,135,0.0,0.0,67,0.00,,---,0.00,VWS V14.01,2013-06-01 09:44:00,
2013-06-01 03:45:00,48.8,38.3,30.14,SE,135,0.0,0.0,67,0.00,,---,0.00,VWS V14.01,2013-06-01 09:45:00,
2013-06-01 03:46:00,48.7,38.3,30.14,SE,135,0.0,0.0,67,0.00,,---,0.00,VWS V14.01,2013-06-01 09:46:00,
2013-06-01 03:47:00,48.7,38.3,30.14,SE,135,0.0,0.0,67,0.00,,---,0.00,VWS V14.01,2013-06-01 09:47:00,
2013-06-01 03:48:00,48.7,38.3,30.14,SE,135,0.0,0.0,67,0.00,,---,0.00,VWS V14.01,2013-06-01 09:48:00,
2013-06-01 03:49:00,48.6,38.3,30.15,SE,135,0.0,0.0,67,0.00,,---,0.00,VWS V14.01,2013-06-01 09:49:00,
2013-06-01 03:50:00,48.6,38.4,30.15,SE,135,0.0,0.0,68,0.00,,---,0.00,VWS V14.01,2013-06-01 09:50:00,
2013-06-01 03:51:00,48.5,38.4,30.14,SE,135,0.0,0.0,68,0.00,,---,0.00,VWS V14.01,2013-06-01 09:51:00,
2013-06-01 03:52:00,48.5,38.4,30.14,SE,135,0.0,0.0,68,0.00,,---,0.00,VWS V14.01,2013-06-01 09:52:00,
2013-06-01 03:53:00,48.4,38.3,30.14,SE,135,0.0,0.0,68,0.00,,---,0.00,VWS V14.01,2013-06-01 09:53:00,
2013-06-01 03:54:00,48.4,38.4,30.15,SE,135,0.0,0.0,68,0.00,,---,0.00,VWS V14.01,2013-06-01 09:54:00,
2013-06-01 03:55:00,48.4,38.4,30.14,SE,135,0.0,0.0,68,0.00,,---,0.00,VWS V14.01,2013-06-01 09:55:00,
2013-06-01 03:56:00,48.4,38.5,30.14,SE,135,0.0,0.0,68,0.00,,---,0.00,VWS V14.01,2013-06-01 09:56:00,
2013-06-01 03:57:00,48.3,38.5,30.14,SE,135,0.0,0.0,69,0.00,,---,0.00,VWS V14.01,2013-06-01 09:57:00,
2013-06-01 03:58:00,48.3,38.5,30.14,SE,135,0.0,0.0,69,0.00,,---,0.00,VWS V14.01,2013-06-01 09:58:00,
2013-06-01 03:59:00,48.3,38.5,30.15,SE,135,0.0,0.0,69,0.00,,---,0.00,VWS V14.01,2013-06-01 09:59:00,
2013-06-01 04:00:00,48.2,38.5,30.15,SE,135,0.0,0.0,69,0.00,,---,0.00,VWS V14.01,2013-06-01 10:00:00,
2013-06-01 04:01:00,48.2,38.5,30.15,SE,135,0.0,0.0,69,0.00,,---,0.00,VWS V14.01,2013-06-01 10:01:00,
2013-06-01 04:02:00,48.1,38.5,30.15,SE,135,0.0,0.0,69,0.00,,---,0.00,VWS V14.01,2013-06-01 10:02:00,
2013-06-01 04:03:00,48.1,38.5,30.15,SE,135,0.0,0.0,69,0.00,,---,0.00,VWS V14.01,2013-06-01 10:03:00,
2013-06-01 04:04:00,48.1,38.6,30.15,SE,135,0.0,0.0,69,0.00,,---,0.00,VWS V14.01,2013-06-01 10:04:00,
2013-06-01 04:05:00,48.1,38.6,30.15,SE,135,0.0,0.0,69,0.00,,---,0.00,VWS V14.01,2013-06-01 10:05:00,
2013-06-01 04:06:00,48.0,38.5,30.15,SE,135,0.0,0.0,70,0.00,,---,0.00,VWS V14.01,2013-06-01 10:06:00,
2013-06-01 04:07:00,48.0,38.5,30.15,SE,135,0.0,0.0,70,0.00,,---,0.00,VWS V14.01,2013-06-01 10:07:00,
2013-06-01 04:08:00,48.0,38.6,30.15,SE,135,0.0,0.0,70,0.00,,---,0.00,VWS V14.01,2013-06-01 10:08:00,
2013-06-01 04:09:00,48.0,38.7,30.15,SE,135,0.0,0.0,70,0.00,,---,0.00,VWS V14.01,2013-06-01 10:09:00,
2013-06-01 04:10:00,47.9,38.6,30.15,SE,135,0.0,0.0,70,0.00,,---,0.00,VWS V14.01,2013-06-01 10:10:00,
2013-06-01 04:11:00,47.9,38.6,30.15,SE,135,0.0,0.0,70,0.00,,---,0.00,VWS V14.01,2013-06-01 10:11:00,
2013-06-01 04:12:00,47.9,38.6,30.15,SE,135,0.0,0.0,70,0.00,,---,0.00,VWS V14.01,2013-06-01 10:12:00,
2013-06-01 04:13:00,47.8,38.5,30.15,SE,135,0.0,0.0,70,0.00,,---,0.00,VWS V14.01,2013-06-01 10:13:00,
2013-06-01 04:14:00,47.8,38.6,30.15,SE,135,0.0,0.0,70,0.00,,---,0.00,VWS V14.01,2013-06-01 10:14:00,
2013-06-01 04:15:00,47.8,38.7,30.15,SE,135,0.0,0.0,70,0.00,,---,0.00,VWS V14.01,2013-06-01 10:15:00,
2013-06-01 04:16:00,47.7,38.6,30.15,SE,135,0.0,0.0,71,0.00,,---,0.00,VWS V14.01,2013-06-01 10:16:00,
2013-06-01 04:17:00,47.7,38.7,30.15,SE,135,0.0,0.0,71,0.00,,---,0.00,VWS V14.01,2013-06-01 10:17:00,
2013-06-01 04:18:00,47.6,38.7,30.15,SE,135,0.0,0.0,71,0.00,,---,0.00,VWS V14.01,2013-06-01 10:18:00,
2013-06-01 04:19:00,47.6,38.8,30.15,SE,135,0.0,0.0,71,0.00,,---,0.00,VWS V14.01,2013-06-01 10:19:00,
2013-06-01 04:20:00,47.6,38.8,30.15,SE,135,0.0,0.0,72,0.00,,---,0.00,VWS V14.01,2013-06-01 10:20:00,
2013-06-01 04:21:00,47.6,38.8,30.15,SE,135,0.0,0.0,71,0.00,,---,0.00,VWS V14.01,2013-06-01 10:21:00,
2013-06-01 04:22:00,47.6,38.8,30.15,SE,135,0.0,0.0,71,0.00,,---,0.00,VWS V14.01,2013-06-01 10:22:00,
2013-06-01 04:23:00,47.5,38.7,30.15,SE,135,0.0,0.0,71,0.00,,---,0.00,VWS V14.01,2013-06-01 10:23:00,
2013-06-01 04:24:00,47.5,38.7,30.15,SE,135,0.0,0.0,71,0.00,,---,0.00,VWS V14.01,2013-06-01 10:24:00,
2013-06-01 04:25:00,47.5,38.8,30.15,SE,135,0.0,0.0,72,0.00,,---,0.00,VWS V14.01,2013-06-01 10:25:00,
2013-06-01 04:26:00,47.5,38.8,30.15,SE,135,0.0,0.0,72,0.00,,---,0.00,VWS V14.01,2013-06-01 10:26:00,
2013-06-01 04:27:00,47.6,38.9,30.15,SE,135,0.0,0.0,72,0.00,,---,0.00,VWS V14.01,2013-06-01 10:27:00,
2013-06-01 04:28:00,47.5,38.8,30.15,SE,135,0.0,0.0,72,0.00,,---,0.00,VWS V14.01,2013-06-01 10:28:00,
2013-06-01 04:29:00,47.5,38.8,30.15,SE,135,0.0,0.0,72,0.00,,---,0.00,VWS V14.01,2013-06-01 10:29:00,
2013-06-01 04:30:00,47.5,38.8,30.15,SE,135,0.0,0.0,72,0.00,,---,0.00,VWS V14.01,2013-06-01 10:30:00,
2013-06-01 04:31:00,47.5,38.8,30.15,SE,135,0.0,0.0,72,0.00,,---,0.00,VWS V14.01,2013-06-01 10:31:00,
2013-06-01 04:32:00,47.5,38.8,30.15,SE,135,0.0,0.0,72,0.00,,---,0.00,VWS V14.01,2013-06-01 10:32:00,
2013-06-01 04:33:00,47.4,38.8,30.15,SE,135,0.0,0.0,72,0.00,,---,0.00,VWS V14.01,2013-06-01 10:33:00,
2013-06-01 04:34:00,47.4,38.8,30.15,SE,135,0.0,0.0,72,0.00,,---,0.00,VWS V14.01,2013-06-01 10:34:00,
2013-06-01 04:35:00,47.4,7.8,0.00,SE,135,0.0,1.9,20,0.00,,---,0.00,VWS V14.01,2013-06-01 10:35:00,
2013-06-01 04:36:00,47.3,38.8,30.16,SE,135,0.0,2.0,72,0.00,,---,0.00,VWS V14.01,2013-06-01 10:36:00,
2013-06-01 04:37:00,47.3,38.8,30.16,SE,135,0.0,1.4,72,0.00,,---,0.00,VWS V14.01,2013-06-01 10:37:00,
2013-06-01 04:38:00,47.3,38.9,30.16,SE,135,0.0,1.4,72,0.00,,---,0.00,VWS V14.01,2013-06-01 10:38:00,
2013-06-01 04:39:00,47.3,39.0,30.16,SE,135,0.0,1.4,73,0.00,,---,99.99,VWS V14.01,2013-06-01 10:39:00,
2013-06-01 04:40:00,13.6,6.4,0.00,North,0,2.4,2.4,73,0.00,,---,0.00,VWS V14.01,2013-06-01 10:40:00,
2013-06-01 04:41:00,72.0,28.9,0.00,NW,322,0.0,2.4,20,0.00,,---,0.00,VWS V14.01,2013-06-01 10:41:00,
2013-06-01 04:42:00,47.3,39.1,30.16,SE,135,0.0,1.4,73,0.00,,---,0.00,VWS V14.01,2013-06-01 10:42:00,
2013-06-01 04:43:00,47.3,39.1,30.16,SE,135,0.0,1.4,73,0.00,,---,0.00,VWS V14.01,2013-06-01 10:43:00,
2013-06-01 04:44:00,47.3,39.2,30.16,SE,135,0.0,1.4,73,0.00,,---,0.00,VWS V14.01,2013-06-01 10:44:00,
2013-06-01 04:45:00,47.3,8.8,0.00,SE,135,0.0,1.4,20,0.00,,---,0.23,VWS V14.01,2013-06-01 10:45:00,
2013-06-01 04:46:00,47.3,39.1,30.16,SE,135,0.0,0.0,73,0.00,,---,0.00,VWS V14.01,2013-06-01 10:46:00,
2013-06-01 04:47:00,47.2,39.0,30.16,SE,135,0.0,1.4,73,0.00,,---,0.00,VWS V14.01,2013-06-01 10:47:00,
2013-06-01 04:48:00,47.2,39.0,30.16,SE,135,0.0,1.9,73,0.00,,---,0.00,VWS V14.01,2013-06-01 10:48:00,
2013-06-01 04:49:00,47.2,39.0,30.16,SE,135,0.0,1.4,73,0.00,,---,0.00,VWS V14.01,2013-06-01 10:49:00,
2013-06-01 04:50:00,47.2,9.3,29.48,SE,135,0.0,1.4,21,0.00,,---,0.00,VWS V14.01,2013-06-01 10:50:00,
2013-06-01 04:51:00,47.2,9.4,0.00,SE,135,0.0,1.4,21,0.00,,---,0.00,VWS V14.01,2013-06-01 10:51:00,
2013-06-01 04:52:00,47.2,39.1,30.16,SE,135,0.0,1.4,73,0.00,,---,0.00,VWS V14.01,2013-06-01 10:52:00,
2013-06-01 04:53:00,71.8,30.1,0.00,SE,135,1.4,1.4,21,0.00,,---,0.00,VWS V14.01,2013-06-01 10:53:00,
2013-06-01 04:54:00,47.2,39.1,30.16,SE,135,0.0,2.8,73,0.00,,---,0.00,VWS V14.01,2013-06-01 10:54:00,
2013-06-01 04:55:00,47.2,39.1,30.16,SE,135,0.0,1.4,73,0.00,,---,0.00,VWS V14.01,2013-06-01 10:55:00,
2013-06-01 04:56:00,47.2,39.1,30.16,SE,135,0.0,2.9,73,0.00,,---,99.99,VWS V14.01,2013-06-01 10:56:00,
2013-06-01 04:57:00,47.2,39.1,30.16,SE,135,0.0,2.8,73,0.00,,---,0.00,VWS V14.01,2013-06-01 10:57:00,
2013-06-01 04:58:00,47.2,39.1,30.16,SE,135,0.0,1.4,73,0.00,,---,0.00,VWS V14.01,2013-06-01 10:58:00,
2013-06-01 04:59:00,71.8,30.8,0.00,SE,135,1.4,1.4,22,0.00,,---,0.00,VWS V14.01,2013-06-01 10:59:00,
2013-06-01 05:00:00,71.8,30.9,0.00,NW,326,0.0,1.4,22,0.00,,---,0.00,VWS V14.01,2013-06-01 11:00:00,
2013-06-01 05:01:00,47.2,39.1,30.17,SE,135,0.0,1.4,73,0.00,,---,0.00,VWS V14.01,2013-06-01 11:01:00,
2013-06-01 05:02:00,47.2,39.1,30.17,SE,135,0.0,1.4,73,0.00,,---,0.00,VWS V14.01,2013-06-01 11:02:00,
2013-06-01 05:03:00,47.2,39.1,30.17,SE,135,0.0,2.9,73,0.00,,---,0.00,VWS V14.01,2013-06-01 11:03:00,
2013-06-01 05:04:00,71.7,31.3,0.00,SE,135,1.4,1.4,22,0.00,,---,0.00,VWS V14.01,2013-06-01 11:04:00,
2013-06-01 05:05:00,47.2,39.0,30.17,SE,135,0.0,2.7,73,0.00,,---,0.00,VWS V14.01,2013-06-01 11:05:00,
2013-06-01 05:06:00,47.3,39.1,30.17,SE,135,0.0,1.4,73,0.00,,---,0.00,VWS V14.01,2013-06-01 11:06:00,
2013-06-01 05:07:00,71.7,31.6,0.00,NNW,329,0.0,2.7,23,0.00,,---,0.00,VWS V14.01,2013-06-01 11:07:00,
2013-06-01 05:08:00,47.4,39.2,30.17,SE,135,0.0,3.2,73,0.00,,---,0.00,VWS V14.01,2013-06-01 11:08:00,
2013-06-01 05:09:00,47.4,39.2,30.17,SE,135,0.0,2.6,73,0.00,,---,0.00,VWS V14.01,2013-06-01 11:09:00,
2013-06-01 05:10:00,47.5,39.3,30.17,SE,135,0.0,1.4,73,0.00,,---,99.99,VWS V14.01,2013-06-01 11:10:00,
2013-06-01 05:11:00,47.5,39.2,0.00,SE,135,0.0,1.4,73,0.00,,---,0.00,VWS V14.01,2013-06-01 11:11:00,
2013-06-01 05:12:00,47.6,39.3,30.17,SE,135,0.0,2.4,73,0.00,,---,0.00,VWS V14.01,2013-06-01 11:12:00,
2013-06-01 05:13:00,47.6,39.2,30.17,SE,135,0.0,2.4,73,0.00,,---,0.00,VWS V14.01,2013-06-01 11:13:00,
2013-06-01 05:14:00,47.7,39.3,30.17,SE,135,0.0,1.4,73,0.00,,---,0.00,VWS V14.01,2013-06-01 11:14:00,
2013-06-01 05:15:00,13.6,6.4,0.00,North,0,0.0,1.4,73,0.00,,---,0.00,VWS V14.01,2013-06-01 11:15:00,
2013-06-01 05:16:00,47.8,39.4,30.17,SE,135,0.0,0.0,72,0.00,,---,0.00,VWS V14.01,2013-06-01 11:16:00,
2013-06-01 05:17:00,47.9,39.5,30.17,SE,135,0.0,1.4,72,0.00,,---,0.00,VWS V14.01,2013-06-01 11:17:00,
2013-06-01 05:18:00,47.9,39.5,30.17,SE,135,0.0,1.4,73,0.00,,---,0.00,VWS V14.01,2013-06-01 11:18:00,
2013-06-01 05:19:00,48.0,39.6,30.18,SE,135,0.0,1.4,73,0.00,,---,0.00,VWS V14.01,2013-06-01 11:19:00,
2013-06-01 05:20:00,48.0,39.6,30.18,SE,135,0.0,1.4,73,0.00,,---,0.00,VWS V14.01,2013-06-01 11:20:00,
2013-06-01 05:21:00,48.1,39.8,30.17,SE,135,0.0,1.4,73,0.00,,---,0.00,VWS V14.01,2013-06-01 11:21:00,
2013-06-01 05:22:00,71.6,33.1,0.00,SE,135,1.4,2.4,24,0.00,,---,0.00,VWS V14.01,2013-06-01 11:22:00,
2013-06-01 05:23:00,48.2,39.8,30.18,SE,135,0.0,2.3,73,0.00,,---,0.00,VWS V14.01,2013-06-01 11:23:00,
2013-06-01 05:24:00,47.3,38.7,30.16,SE,135,0.0,0.0,72,0.00,,---,99.99,VWS V14.01,2013-06-01 11:24:00,
2013-06-01 05:25:00,48.2,39.8,30.18,SE,135,0.0,2.2,72,0.00,,---,0.00,VWS V14.01,2013-06-01 11:25:00,
2013-06-01 05:26:00,48.2,39.7,30.18,North,0,0.0,0.0,72,0.00,,---,0.00,VWS V14.01,2013-06-01 11:26:00,
2013-06-01 05:27:00,48.2,39.7,30.18,SE,135,0.0,15.0,72,0.00,,---,0.00,VWS V14.01,2013-06-01 11:27:00,
2013-06-01 05:28:00,48.3,39.7,30.18,SE,135,0.0,13.6,72,0.00,,---,0.00,VWS V14.01,2013-06-01 11:28:00,
2013-06-01 05:29:00,47.3,37.6,30.16,SE,135,0.0,1.4,69,0.15,,---,99.99,VWS V14.01,2013-06-01 11:29:00,
2013-06-01 05:30:00,48.3,39.7,30.18,North,0,0.0,4.5,72,0.00,,---,7.99,VWS V14.01,2013-06-01 11:30:00,
2013-06-01 05:31:00,48.3,39.6,30.18,SE,135,0.0,1.4,72,0.00,,---,0.00,VWS V14.01,2013-06-01 11:31:00,
2013-06-01 05:32:00,48.4,39.7,30.18,SE,135,0.0,1.9,72,0.00,,---,0.00,VWS V14.01,2013-06-01 11:32:00,
2013-06-01 05:33:00,48.4,39.7,30.18,SE,135,0.0,1.9,72,0.00,,---,0.00,VWS V14.01,2013-06-01 11:33:00,
2013-06-01 05:34:00,48.4,39.7,30.18,SE,135,0.0,15.2,72,0.00,,---,0.00,VWS V14.01,2013-06-01 11:34:00,
2013-06-01 05:35:00,47.3,8.5,30.16,SE,135,0.0,14.4,20,0.00,,---,99.99,VWS V14.01,2013-06-01 11:35:00,
2013-06-01 05:36:00,48.5,39.7,30.18,SE,135,0.0,13.5,72,0.00,,---,0.00,VWS V14.01,2013-06-01 11:36:00,
2013-06-01 05:37:00,48.6,39.7,30.18,SE,135,0.0,1.6,71,0.00,,---,0.00,VWS V14.01,2013-06-01 11:37:00,
2013-06-01 05:38:00,48.6,39.7,30.18,SE,135,0.0,1.4,71,0.00,,---,99.99,VWS V14.01,2013-06-01 11:38:00,
2013-06-01 05:39:00,48.6,39.7,30.19,SE,135,0.0,0.0,71,0.00,,---,0.00,VWS V14.01,2013-06-01 11:39:00,
2013-06-01 05:40:00,47.3,8.9,29.48,SE,135,0.0,1.4,21,0.00,,---,0.00,VWS V14.01,2013-06-01 11:40:00,
2013-06-01 05:41:00,48.7,39.7,30.19,SE,135,0.0,1.4,71,0.00,,---,7.90,VWS V14.01,2013-06-01 11:41:00,
2013-06-01 05:42:00,48.7,39.7,30.18,SE,135,0.0,5.3,71,0.00,,---,0.00,VWS V14.01,2013-06-01 11:42:00,
2013-06-01 05:43:00,48.7,39.7,30.19,SE,135,0.0,5.3,71,0.00,,---,0.00,VWS V14.01,2013-06-01 11:43:00,
2013-06-01 05:44:00,48.8,39.7,30.19,SE,135,0.0,15.3,71,0.00,,---,0.00,VWS V14.01,2013-06-01 11:44:00,
2013-06-01 05:45:00,46.2,8.5,0.00,SE,135,0.0,1.4,21,0.00,,---,99.99,VWS V14.01,2013-06-01 11:45:00,
2013-06-01 05:46:00,48.8,39.7,30.19,SE,135,0.0,15.3,71,0.00,,---,0.00,VWS V14.01,2013-06-01 11:46:00,
2013-06-01 05:47:00,48.9,39.7,30.19,SE,135,0.0,5.6,70,0.00,,---,0.00,VWS V14.01,2013-06-01 11:47:00,
2013-06-01 05:48:00,48.9,39.8,30.19,SE,135,0.0,1.1,71,0.00,,---,0.00,VWS V14.01,2013-06-01 11:48:00,
2013-06-01 05:49:00,48.9,39.8,30.19,SE,135,0.0,0.0,71,1.28,,---,0.00,VWS V14.01,2013-06-01 11:49:00,
2013-06-01 05:50:00,47.2,39.1,30.16,SE,135,0.0,2.9,73,0.00,,---,99.99,VWS V14.01,2013-06-01 11:50:00,
2013-06-01 05:51:00,49.0,39.8,30.19,SE,135,0.0,5.8,70,0.00,,---,0.00,VWS V14.01,2013-06-01 11:51:00,
2013-06-01 05:52:00,48.2,39.8,30.18,SE,135,0.0,4.2,72,0.00,,---,4.97,VWS V14.01,2013-06-01 11:52:00,
2013-06-01 05:53:00,49.1,42.7,30.19,North,0,0.0,0.0,78,0.00,,---,7.28,VWS V14.01,2013-06-01 11:53:00,
2013-06-01 05:54:00,49.1,39.8,30.19,SE,135,0.0,0.0,70,0.00,,---,0.00,VWS V14.01,2013-06-01 11:54:00,
2013-06-01 05:55:00,47.2,39.1,30.17,SE,135,0.0,1.4,73,0.00,,---,99.99,VWS V14.01,2013-06-01 11:55:00,
2013-06-01 05:56:00,49.1,39.8,30.19,SE,135,0.0,0.0,70,0.00,,---,0.00,VWS V14.01,2013-06-01 11:56:00,
2013-06-01 05:57:00,49.1,37.8,36.35,SE,135,0.0,0.0,65,2.27,,---,3.57,VWS V14.01,2013-06-01 11:57:00,
2013-06-01 05:58:00,49.1,27.4,29.48,SE,135,0.0,15.5,43,0.00,,---,7.79,VWS V14.01,2013-06-01 11:58:00,
2013-06-01 05:59:00,13.6,-39.8,0.00,North,0,0.6,13.5,2,0.00,,---,7.29,VWS V14.01,2013-06-01 11:59:00,
2013-06-01 06:00:00,47.2,39.1,30.17,SE,135,0.0,1.4,73,0.00,,---,99.99,VWS V14.01,2013-06-01 12:00:00,
2013-06-01 06:01:00,49.1,39.6,30.20,SE,135,0.0,0.6,70,0.00,,---,0.00,VWS V14.01,2013-06-01 12:01:00,
2013-06-01 06:02:00,49.1,39.6,30.20,SE,135,0.0,15.5,70,0.00,,---,0.00,VWS V14.01,2013-06-01 12:02:00,
2013-06-01 06:03:00,49.2,37.9,0.00,SE,135,0.0,15.6,65,0.84,,---,3.63,VWS V14.01,2013-06-01 12:03:00,
2013-06-01 06:04:00,49.2,39.7,30.20,SE,135,0.0,0.4,70,0.00,,---,2.51,VWS V14.01,2013-06-01 12:04:00,
2013-06-01 06:05:00,47.3,11.0,29.48,SE,135,0.0,1.4,23,0.00,,---,99.99,VWS V14.01,2013-06-01 12:05:00,
2013-06-01 06:06:00,49.2,39.6,30.20,SE,135,0.0,0.0,69,0.00,,---,0.00,VWS V14.01,2013-06-01 12:06:00,
2013-06-01 06:07:00,49.2,39.6,30.20,SE,135,0.0,0.0,69,0.00,,---,0.00,VWS V14.01,2013-06-01 12:07:00,
2013-06-01 06:08:00,49.2,39.6,30.20,SE,135,0.0,0.4,69,2.28,,---,0.00,VWS V14.01,2013-06-01 12:08:00,
2013-06-01 06:09:00,49.2,39.7,30.20,SE,135,0.0,0.0,70,0.00,,---,0.00,VWS V14.01,2013-06-01 12:09:00,
2013-06-01 06:10:00,39.2,30.0,0.00,SE,135,0.0,0.0,69,0.00,,---,2.16,VWS V14.01,2013-06-01 12:10:00,
2013-06-01 06:11:00,47.5,39.2,30.17,SE,135,0.0,1.4,73,0.00,,---,99.99,VWS V14.01,2013-06-01 12:11:00,
2013-06-01 06:12:00,49.3,39.7,30.20,SE,135,0.0,13.4,69,0.00,,---,0.00,VWS V14.01,2013-06-01 12:12:00,
2013-06-01 06:13:00,49.3,39.7,30.20,SE,135,0.0,0.0,69,0.00,,---,0.00,VWS V14.01,2013-06-01 12:13:00,
2013-06-01 06:14:00,49.3,0.0,29.83,SE,135,0.0,13.4,0,0.00,,---,0.00,VWS V14.01,2013-06-01 12:14:00,
2013-06-01 06:15:00,49.3,39.6,30.20,SE,135,0.0,0.0,69,0.00,,---,0.00,VWS V14.01,2013-06-01 12:15:00,
2013-06-01 06:16:00,49.3,39.6,30.20,SE,135,0.0,15.7,69,0.00,,---,0.00,VWS V14.01,2013-06-01 12:16:00,
2013-06-01 06:17:00,47.7,39.3,30.17,SE,135,0.0,1.4,73,0.00,,---,0.00,VWS V14.01,2013-06-01 12:17:00,
2013-06-01 06:18:00,8.1,-1.3,36.35,North,0,0.0,9.4,65,0.00,,---,4.71,VWS V14.01,2013-06-01 12:18:00,
2013-06-01 06:19:00,49.4,39.7,30.20,SE,135,0.0,0.0,69,0.00,,---,0.00,VWS V14.01,2013-06-01 12:19:00,
2013-06-01 06:20:00,49.4,39.6,30.20,SE,135,0.0,13.4,69,0.00,,---,5.09,VWS V14.01,2013-06-01 12:20:00,
2013-06-01 06:21:00,49.4,39.7,30.20,SE,135,0.0,0.0,69,0.00,,---,0.00,VWS V14.01,2013-06-01 12:21:00,
2013-06-01 06:22:00,71.7,32.7,0.00,SE,135,1.4,1.4,24,0.00,,---,99.99,VWS V14.01,2013-06-01 12:22:00,
2013-06-01 06:23:00,13.6,5.4,0.00,North,0,0.0,0.0,69,0.00,,---,7.72,VWS V14.01,2013-06-01 12:23:00,
2013-06-01 06:24:00,49.4,39.8,30.20,SE,135,0.0,0.3,69,0.00,,---,0.00,VWS V14.01,2013-06-01 12:24:00,
2013-06-01 06:25:00,49.4,39.8,30.20,SE,135,0.0,0.0,69,0.00,,---,0.00,VWS V14.01,2013-06-01 12:25:00,
2013-06-01 06:26:00,49.5,40.0,30.20,SE,135,0.0,0.0,70,0.00,,---,0.00,VWS V14.01,2013-06-01 12:26:00,
2013-06-01 06:27:00,48.1,39.7,30.18,SE,135,0.0,1.4,73,0.00,,---,99.99,VWS V14.01,2013-06-01 12:27:00,
2013-06-01 06:28:00,49.5,40.0,30.20,SE,135,0.0,15.8,70,0.00,,---,0.00,VWS V14.01,2013-06-01 12:28:00,
2013-06-01 06:29:00,49.5,40.0,30.21,SE,135,0.0,13.3,70,0.00,,---,0.00,VWS V14.01,2013-06-01 12:29:00,
2013-06-01 06:30:00,49.5,40.0,30.21,SE,135,0.0,6.0,70,0.00,,---,0.00,VWS V14.01,2013-06-01 12:30:00,
2013-06-01 06:31:00,49.6,40.1,30.21,SE,135,0.0,0.0,70,0.00,,---,0.00,VWS V14.01,2013-06-01 12:31:00,
2013-06-01 06:32:00,48.2,39.8,30.18,SE,135,0.0,4.2,72,0.00,,---,8.04,VWS V14.01,2013-06-01 12:32:00,
2013-06-01 06:33:00,49.6,40.2,30.21,SE,135,0.0,15.3,70,0.00,,---,0.10,VWS V14.01,2013-06-01 12:33:00,
2013-06-01 06:34:00,49.6,40.2,30.21,SE,135,0.0,0.0,70,0.00,,---,0.00,VWS V14.01,2013-06-01 12:34:00,
2013-06-01 06:35:00,49.7,40.2,30.21,SE,135,0.0,1.4,70,0.00,,---,0.00,VWS V14.01,2013-06-01 12:35:00,
2013-06-01 06:36:00,49.7,28.2,0.00,SE,135,0.0,13.3,43,0.00,,---,9.82,VWS V14.01,2013-06-01 12:36:00,
2013-06-01 06:37:00,24.1,20.0,30.18,SE,135,0.0,4.5,84,0.00,,---,0.00,VWS V14.01,2013-06-01 12:37:00,
2013-06-01 06:38:00,49.7,0.0,30.21,SE,135,0.0,8.8,0,0.00,,---,0.00,VWS V14.01,2013-06-01 12:38:00,
2013-06-01 06:39:00,49.8,40.3,30.21,SE,135,0.0,0.0,70,0.00,,---,0.00,VWS V14.01,2013-06-01 12:39:00,
2013-06-01 06:40:00,49.8,40.3,30.21,SE,135,0.0,15.4,70,0.00,,---,0.00,VWS V14.01,2013-06-01 12:40:00,
2013-06-01 06:41:00,49.8,40.3,30.21,SE,135,0.0,0.0,70,0.00,,---,0.00,VWS V14.01,2013-06-01 12:41:00,
2013-06-01 06:42:00,49.7,40.2,30.21,SE,135,0.0,9.4,70,0.00,,---,7.27,VWS V14.01,2013-06-01 12:42:00,
2013-06-01 06:43:00,48.4,39.7,30.18,SE,135,0.0,0.0,72,0.00,,---,99.99,VWS V14.01,2013-06-01 12:43:00,
2013-06-01 06:44:00,71.2,40.2,0.00,SE,135,1.4,9.4,32,0.00,,---,0.00,VWS V14.01,2013-06-01 12:44:00,
2013-06-01 06:45:00,49.8,40.4,30.21,SE,135,0.0,13.4,70,0.00,,---,0.00,VWS V14.01,2013-06-01 12:45:00,
2013-06-01 06:46:00,49.8,40.3,30.21,SE,135,0.0,0.0,70,0.00,,---,0.00,VWS V14.01,2013-06-01 12:46:00,
2013-06-01 06:47:00,49.4,39.6,30.20,SE,135,0.0,13.4,69,0.00,,---,3.77,VWS V14.01,2013-06-01 12:47:00,
2013-06-01 06:48:00,48.5,26.5,30.18,SE,135,0.0,13.5,42,0.00,,---,7.95,VWS V14.01,2013-06-01 12:48:00,
2013-06-01 06:49:00,49.8,40.3,30.22,SE,135,0.0,9.4,70,0.00,,---,0.00,VWS V14.01,2013-06-01 12:49:00,
2013-06-01 06:50:00,49.8,40.0,29.48,SE,135,0.0,0.0,69,0.00,,---,0.00,VWS V14.01,2013-06-01 12:50:00,
2013-06-01 06:51:00,49.8,40.3,30.22,SE,135,0.0,1.4,70,0.00,,---,0.00,VWS V14.01,2013-06-01 12:51:00,
2013-06-01 06:52:00,49.9,22.1,30.22,SE,135,0.0,9.7,33,0.00,,---,99.99,VWS V14.01,2013-06-01 12:52:00,
2013-06-01 06:53:00,48.6,39.7,30.19,SE,135,0.0,0.0,71,0.00,,---,7.91,VWS V14.01,2013-06-01 12:53:00,
2013-06-01 06:54:00,49.9,40.4,30.22,SE,135,0.0,15.5,70,0.00,,---,1.58,VWS V14.01,2013-06-01 12:54:00,
2013-06-01 06:55:00,49.9,28.5,0.00,SE,135,0.0,9.8,43,0.00,,---,7.78,VWS V14.01,2013-06-01 12:55:00,
2013-06-01 06:56:00,50.0,40.5,30.22,SE,135,0.0,1.4,70,0.00,,---,0.00,VWS V14.01,2013-06-01 12:56:00,
2013-06-01 06:57:00,50.0,40.2,30.22,SE,135,0.0,0.0,69,0.00,,---,99.99,VWS V14.01,2013-06-01 12:57:00,
2013-06-01 06:58:00,48.7,26.8,0.00,SE,135,0.0,9.4,42,0.00,,---,7.88,VWS V14.01,2013-06-01 12:58:00,
2013-06-01 06:59:00,50.1,40.6,30.22,SE,135,0.0,10.1,70,0.00,,---,99.99,VWS V14.01,2013-06-01 12:59:00,
2013-06-01 07:00:00,50.1,40.6,30.22,SE,135,0.0,0.0,70,0.00,,---,0.00,VWS V14.01,2013-06-01 13:00:00,
2013-06-01 07:01:00,50.1,40.6,30.22,SE,135,0.0,13.4,70,0.00,,---,0.00,VWS V14.01,2013-06-01 13:01:00,
2013-06-01 07:02:00,50.2,40.7,30.22,SE,135,0.0,1.4,70,0.00,,---,0.00,VWS V14.01,2013-06-01 13:02:00,
2013-06-01 07:03:00,71.4,35.3,0.00,NNW,336,0.0,15.3,27,0.00,,---,99.99,VWS V14.01,2013-06-01 13:03:00,
2013-06-01 07:04:00,50.2,40.8,30.22,SE,135,0.0,10.4,70,0.00,,---,0.00,VWS V14.01,2013-06-01 13:04:00,
2013-06-01 07:05:00,50.3,23.4,30.22,SE,135,0.0,1.4,34,0.00,,---,4.25,VWS V14.01,2013-06-01 13:05:00,
2013-06-01 07:06:00,50.3,40.9,30.22,SE,135,0.0,1.4,70,0.00,,---,0.00,VWS V14.01,2013-06-01 13:06:00,
2013-06-01 07:07:00,50.3,40.9,30.22,SE,135,0.0,0.0,70,0.00,,---,0.00,VWS V14.01,2013-06-01 13:07:00,
2013-06-01 07:08:00,50.3,40.8,30.22,SE,135,0.0,1.4,70,0.00,,---,0.00,VWS V14.01,2013-06-01 13:08:00,
2013-06-01 07:09:00,48.9,39.8,30.19,SE,135,0.0,0.0,71,0.00,,---,99.99,VWS V14.01,2013-06-01 13:09:00,
2013-06-01 07:10:00,50.4,40.9,30.22,SE,135,0.0,13.4,70,0.00,,---,0.00,VWS V14.01,2013-06-01 13:10:00,
2013-06-01 07:11:00,50.5,41.0,30.22,SE,135,0.0,0.0,70,0.00,,---,0.00,VWS V14.01,2013-06-01 13:11:00,
2013-06-01 07:12:00,50.5,24.0,29.48,SE,135,0.0,1.4,35,0.00,,---,0.00,VWS V14.01,2013-06-01 13:12:00,
2013-06-01 07:13:00,50.5,41.0,30.22,SE,135,0.0,0.0,70,0.00,,---,0.00,VWS V14.01,2013-06-01 13:13:00,
2013-06-01 07:14:00,49.0,27.3,0.00,SE,135,0.0,0.0,43,0.00,,---,7.81,VWS V14.01,2013-06-01 13:14:00,
2013-06-01 07:15:00,49.7,23.5,0.00,SE,135,0.0,0.6,36,0.00,,---,7.78,VWS V14.01,2013-06-01 13:15:00,
2013-06-01 07:16:00,50.6,41.2,30.22,SE,135,0.0,0.0,70,0.00,,---,7.26,VWS V14.01,2013-06-01 13:16:00,
2013-06-01 07:17:00,50.6,41.1,30.22,SE,135,0.0,11.2,70,0.00,,---,0.00,VWS V14.01,2013-06-01 13:17:00,
2013-06-01 07:18:00,50.7,24.6,0.00,SE,135,0.0,0.0,36,0.00,,---,4.38,VWS V14.01,2013-06-01 13:18:00,
2013-06-01 07:19:00,49.1,39.7,30.19,SE,135,0.0,0.0,70,0.00,,---,0.00,VWS V14.01,2013-06-01 13:19:00,
2013-06-01 07:20:00,49.7,0.0,1.30,SE,135,0.0,0.0,0,0.00,,---,0.00,VWS V14.01,2013-06-01 13:20:00,
2013-06-01 07:21:00,50.8,41.3,30.22,SE,135,0.0,13.3,70,0.00,,---,0.00,VWS V14.01,2013-06-01 13:21:00,
2013-06-01 07:22:00,50.9,41.5,30.23,SE,135,0.0,0.0,70,0.00,,---,0.00,VWS V14.01,2013-06-01 13:22:00,
2013-06-01 07:23:00,50.9,41.5,30.22,SE,135,0.0,1.4,70,0.00,,---,0.00,VWS V14.01,2013-06-01 13:23:00,
2013-06-01 07:24:00,8.1,-1.4,36.35,North,0,0.0,1.4,64,0.00,,---,4.44,VWS V14.01,2013-06-01 13:24:00,
2013-06-01 07:25:00,49.2,39.8,30.20,SE,135,0.0,0.0,70,0.00,,---,99.99,VWS V14.01,2013-06-01 13:25:00,
2013-06-01 07:26:00,51.1,41.7,30.22,SE,135,0.0,0.0,70,0.00,,---,0.00,VWS V14.01,2013-06-01 13:26:00,
2013-06-01 07:27:00,51.1,0.0,1.32,NNE,17,0.0,9.4,0,0.00,,---,4.47,VWS V14.01,2013-06-01 13:27:00,
2013-06-01 07:28:00,51.1,41.7,30.22,SE,135,0.0,0.0,70,0.00,,---,0.00,VWS V14.01,2013-06-01 13:28:00,
2013-06-01 07:29:00,51.3,41.9,30.22,SE,135,0.0,0.0,70,0.00,,---,0.00,VWS V14.01,2013-06-01 13:29:00,
2013-06-01 07:30:00,51.2,41.7,30.22,SE,135,0.0,13.2,70,0.00,,---,0.00,VWS V14.01,2013-06-01 13:30:00,
2013-06-01 07:31:00,49.2,39.6,30.20,SE,135,0.0,15.6,69,0.00,,---,99.99,VWS V14.01,2013-06-01 13:31:00,
2013-06-01 07:32:00,51.4,42.0,30.23,SE,135,0.0,0.7,70,0.00,,---,0.00,VWS V14.01,2013-06-01 13:32:00,
2013-06-01 07:33:00,51.3,41.7,30.23,SE,135,0.0,15.7,70,0.00,,---,0.00,VWS V14.01,2013-06-01 13:33:00,
2013-06-01 07:34:00,51.4,41.7,30.22,SE,135,0.0,15.7,69,0.00,,---,0.00,VWS V14.01,2013-06-01 13:34:00,
2013-06-01 07:35:00,51.4,41.8,30.22,SE,135,0.0,0.0,70,0.00,,---,0.23,VWS V14.01,2013-06-01 13:35:00,
2013-06-01 07:36:00,49.2,39.6,30.20,SE,135,0.0,0.4,69,0.00,,---,99.99,VWS V14.01,2013-06-01 13:36:00,
2013-06-01 07:37:00,51.6,42.0,30.23,North,0,0.0,0.0,70,0.00,,---,0.00,VWS V14.01,2013-06-01 13:37:00,
2013-06-01 07:38:00,51.6,42.1,6.04,SE,135,9.4,9.4,70,0.00,,---,99.99,VWS V14.01,2013-06-01 13:38:00,
2013-06-01 07:39:00,51.6,42.0,30.23,SE,135,0.0,0.0,70,0.00,,---,0.00,VWS V14.01,2013-06-01 13:39:00,
2013-06-01 07:40:00,51.7,42.0,30.23,SE,135,0.0,6.0,69,0.00,,---,1.51,VWS V14.01,2013-06-01 13:40:00,
2013-06-01 07:41:00,49.3,39.7,30.20,SE,135,0.0,0.0,69,0.00,,---,7.73,VWS V14.01,2013-06-01 13:41:00,
2013-06-01 07:42:00,51.8,41.9,30.23,SE,135,0.0,0.1,69,0.00,,---,0.00,VWS V14.01,2013-06-01 13:42:00,
2013-06-01 07:43:00,51.9,42.0,30.23,SE,135,0.0,0.0,69,0.00,,---,0.00,VWS V14.01,2013-06-01 13:43:00,
2013-06-01 07:44:00,51.9,42.0,30.23,SE,135,0.0,15.8,69,0.00,,---,0.00,VWS V14.01,2013-06-01 13:44:00,
2013-06-01 07:45:00,51.9,42.0,30.23,SE,135,0.0,1.4,69,0.00,,---,0.00,VWS V14.01,2013-06-01 13:45:00,
2013-06-01 07:46:00,49.3,27.6,0.00,SE,135,0.0,0.0,43,0.00,,---,10.20,VWS V14.01,2013-06-01 13:46:00,
2013-06-01 07:47:00,52.0,42.1,30.23,SE,135,0.0,13.2,69,0.00,,---,0.00,VWS V14.01,2013-06-01 13:47:00,
2013-06-01 07:48:00,52.0,42.1,30.23,SE,135,0.0,13.2,69,0.00,,---,0.00,VWS V14.01,2013-06-01 13:48:00,
2013-06-01 07:49:00,52.1,42.2,30.23,SE,135,0.0,0.0,69,0.00,,---,0.00,VWS V14.01,2013-06-01 13:49:00,
2013-06-01 07:50:00,49.5,40.0,30.21,SE,135,0.0,6.0,70,0.00,,---,7.76,VWS V14.01,2013-06-01 13:50:00,
2013-06-01 07:51:00,49.7,38.3,0.00,SE,135,0.0,6.0,65,1.19,,---,1.51,VWS V14.01,2013-06-01 13:51:00,
2013-06-01 07:52:00,49.4,39.6,30.20,SE,135,0.0,7.7,69,0.00,,---,0.00,VWS V14.01,2013-06-01 13:52:00,
2013-06-01 07:53:00,52.3,42.2,30.23,SE,135,0.0,0.0,68,0.00,,---,0.00,VWS V14.01,2013-06-01 13:53:00,
2013-06-01 07:54:00,52.4,42.1,30.23,SE,135,0.0,0.0,68,0.00,,---,0.00,VWS V14.01,2013-06-01 13:54:00,
2013-06-01 07:55:00,52.4,42.1,30.23,SE,135,0.0,0.0,68,0.00,,---,0.00,VWS V14.01,2013-06-01 13:55:00,
2013-06-01 07:56:00,52.4,42.0,30.23,SE,135,0.0,13.6,68,0.00,,---,0.00,VWS V14.01,2013-06-01 13:56:00,
2013-06-01 07:57:00,49.4,27.8,0.00,SE,135,0.0,0.4,43,0.00,,---,7.74,VWS V14.01,2013-06-01 13:57:00,
2013-06-01 07:58:00,71.9,60.5,0.00,SE,135,0.0,9.4,67,0.00,,---,0.00,VWS V14.01,2013-06-01 13:58:00,
2013-06-01 07:59:00,52.5,41.9,30.23,SE,135,0.0,9.4,67,0.00,,---,0.00,VWS V14.01,2013-06-01 13:59:00,
2013-06-01 08:00:00,52.7,42.1,30.23,SE,135,0.0,0.0,67,0.00,,---,0.00,VWS V14.01,2013-06-01 14:00:00,
2013-06-01 08:01:00,52.5,42.0,30.23,SE,135,0.0,0.0,67,0.00,,---,2.25,VWS V14.01,2013-06-01 14:01:00,
2013-06-01 08:02:00,52.6,42.1,30.23,SE,135,0.0,0.0,67,0.00,,---,4.82,VWS V14.01,2013-06-01 14:02:00,
2013-06-01 08:03:00,49.5,40.0,30.20,SE,135,0.0,15.8,70,0.00,,---,99.99,VWS V14.01,2013-06-01 14:03:00,
2013-06-01 08:04:00,52.7,42.2,30.24,SE,135,0.0,6.0,67,0.00,,---,0.00,VWS V14.01,2013-06-01 14:04:00,
2013-06-01 08:05:00,52.7,42.0,30.24,SE,135,0.0,14.9,67,0.00,,---,0.00,VWS V14.01,2013-06-01 14:05:00,
2013-06-01 08:06:00,52.7,41.9,30.24,SE,135,0.0,0.0,67,0.00,,---,0.00,VWS V14.01,2013-06-01 14:06:00,
2013-06-01 08:07:00,52.7,41.9,30.24,SE,135,0.0,0.0,66,0.00,,---,0.00,VWS V14.01,2013-06-01 14:07:00,
2013-06-01 08:08:00,49.6,40.2,30.21,SE,135,0.0,15.3,70,0.00,,---,99.99,VWS V14.01,2013-06-01 14:08:00,
2013-06-01 08:09:00,52.7,41.4,30.24,SE,135,0.0,0.0,65,0.00,,---,0.00,VWS V14.01,2013-06-01 14:09:00,
2013-06-01 08:10:00,52.7,41.3,30.24,SE,135,0.0,9.4,65,0.00,,---,0.00,VWS V14.01,2013-06-01 14:10:00,
2013-06-01 08:11:00,52.7,41.4,30.24,SE,135,0.0,0.0,65,0.00,,---,0.00,VWS V14.01,2013-06-01 14:11:00,
2013-06-01 08:12:00,52.6,41.2,30.24,SE,135,0.0,13.2,65,0.00,,---,0.00,VWS V14.01,2013-06-01 14:12:00,
2013-06-01 08:13:00,49.8,40.0,30.21,SE,135,0.0,0.0,69,0.00,,---,99.99,VWS V14.01,2013-06-01 14:13:00,
2013-06-01 08:14:00,52.6,41.2,30.24,SE,135,0.0,1.4,65,0.00,,---,0.00,VWS V14.01,2013-06-01 14:14:00,
2013-06-01 08:15:00,52.7,41.2,30.24,SE,135,0.0,0.0,65,0.00,,---,1.51,VWS V14.01,2013-06-01 14:15:00,
2013-06-01 08:16:00,52.7,41.4,30.24,SE,135,0.0,14.9,65,0.00,,---,0.00,VWS V14.01,2013-06-01 14:16:00,
2013-06-01 08:17:00,52.9,32.9,30.25,SE,135,0.0,6.0,46,0.00,,---,7.36,VWS V14.01,2013-06-01 14:17:00,
2013-06-01 08:18:00,52.8,41.6,30.24,SE,135,0.0,0.0,66,0.00,,---,0.00,VWS V14.01,2013-06-01 14:18:00,
2013-06-01 08:19:00,52.9,41.7,30.25,SE,135,0.0,9.4,66,0.00,,---,0.00,VWS V14.01,2013-06-01 14:19:00,
2013-06-01 08:20:00,49.8,28.4,30.21,SE,135,0.0,13.4,43,0.00,,---,7.79,VWS V14.01,2013-06-01 14:20:00,
2013-06-01 08:21:00,53.0,41.6,30.25,SE,135,0.0,0.0,65,0.00,,---,0.00,VWS V14.01,2013-06-01 14:21:00,
2013-06-01 08:22:00,53.1,41.8,30.25,SE,135,0.0,13.2,65,0.00,,---,0.00,VWS V14.01,2013-06-01 14:22:00,
2013-06-01 08:23:00,53.2,42.0,30.25,SE,135,0.0,0.0,66,0.00,,---,1.51,VWS V14.01,2013-06-01 14:23:00,
2013-06-01 08:24:00,53.2,42.0,30.25,SE,135,0.0,13.2,66,0.00,,---,0.00,VWS V14.01,2013-06-01 14:24:00,
2013-06-01 08:25:00,49.8,28.4,0.00,SE,135,0.0,1.4,43,0.00,,---,7.79,VWS V14.01,2013-06-01 14:25:00,
2013-06-01 08:26:00,53.4,41.9,30.25,SE,135,0.0,13.2,65,0.00,,---,0.00,VWS V14.01,2013-06-01 14:26:00,
2013-06-01 08:27:00,50.4,40.9,30.22,SE,135,0.0,1.4,70,0.00,,---,7.27,VWS V14.01,2013-06-01 14:27:00,
2013-06-01 08:28:00,53.6,41.9,30.25,SE,135,0.0,13.2,64,0.00,,---,0.00,VWS V14.01,2013-06-01 14:28:00,
2013-06-01 08:29:00,51.4,30.7,0.00,SE,135,0.0,15.7,45,0.00,,---,7.74,VWS V14.01,2013-06-01 14:29:00,
2013-06-01 08:30:00,71.2,41.1,0.00,SE,135,1.4,1.4,34,0.00,,---,99.99,VWS V14.01,2013-06-01 14:30:00,
2013-06-01 08:31:00,52.5,42.0,30.23,SE,135,0.0,0.0,67,0.00,,---,0.00,VWS V14.01,2013-06-01 14:31:00,
2013-06-01 08:32:00,53.8,41.1,30.25,SE,135,0.0,0.0,62,0.00,,---,0.00,VWS V14.01,2013-06-01 14:32:00,
2013-06-01 08:33:00,53.9,40.7,30.25,SE,135,0.0,0.0,61,0.00,,---,0.00,VWS V14.01,2013-06-01 14:33:00,
2013-06-01 08:34:00,54.0,40.6,30.25,SE,135,0.0,11.1,60,0.00,,---,5.13,VWS V14.01,2013-06-01 14:34:00,
2013-06-01 08:35:00,50.1,40.6,30.22,North,0,0.0,6.0,70,0.00,,---,1.51,VWS V14.01,2013-06-01 14:35:00,
2013-06-01 08:36:00,54.2,40.2,30.25,SE,135,0.0,2.7,59,0.00,,---,0.00,VWS V14.01,2013-06-01 14:36:00,
2013-06-01 08:37:00,54.2,40.1,30.25,North,0,0.0,0.2,59,0.00,,---,5.17,VWS V14.01,2013-06-01 14:37:00,
2013-06-01 08:38:00,54.3,39.7,30.25,SE,135,0.0,0.0,58,0.00,,---,0.00,VWS V14.01,2013-06-01 14:38:00,
2013-06-01 08:39:00,13.6,1.4,0.00,North,0,8.9,9.0,58,0.00,,---,0.00,VWS V14.01,2013-06-01 14:39:00,
2013-06-01 08:40:00,50.2,40.8,30.22,SE,135,0.0,0.0,70,0.00,,---,99.99,VWS V14.01,2013-06-01 14:40:00,
2013-06-01 08:41:00,54.6,39.8,30.25,South,170,6.0,6.0,57,0.00,,---,0.00,VWS V14.01,2013-06-01 14:41:00,
2013-06-01 08:42:00,54.8,32.9,30.25,ENE,73,4.2,13.3,43,0.00,,---,6.38,VWS V14.01,2013-06-01 14:42:00,
2013-06-01 08:43:00,50.9,41.5,30.22,SE,135,0.0,15.7,70,0.00,,---,99.99,VWS V14.01,2013-06-01 14:43:00,
2013-06-01 08:44:00,13.6,5.7,0.00,North,0,0.9,1.4,70,0.00,,---,99.99,VWS V14.01,2013-06-01 14:44:00,
2013-06-01 08:45:00,54.9,38.3,30.25,East,97,0.0,4.2,54,0.00,,---,0.00,VWS V14.01,2013-06-01 14:45:00,
2013-06-01 08:46:00,59.4,0.0,0.45,NE,51,0.3,6.0,0,0.00,,---,0.00,VWS V14.01,2013-06-01 14:46:00,
2013-06-01 08:47:00,50.4,40.5,30.22,SE,135,0.0,0.0,69,0.00,,---,99.99,VWS V14.01,2013-06-01 14:47:00,
2013-06-01 08:48:00,55.2,38.4,30.25,NE,51,0.0,9.4,53,0.00,,---,0.16,VWS V14.01,2013-06-01 14:48:00,
2013-06-01 08:49:00,55.3,38.5,30.25,NE,51,0.0,2.2,53,0.00,,---,0.00,VWS V14.01,2013-06-01 14:49:00,
2013-06-01 08:50:00,51.5,41.9,30.23,SE,135,0.0,12.4,70,0.00,,---,0.00,VWS V14.01,2013-06-01 14:50:00,
2013-06-01 08:51:00,9.5,-4.5,30.25,North,0,0.0,3.4,52,0.00,,---,0.00,VWS V14.01,2013-06-01 14:51:00,
2013-06-01 08:52:00,55.4,37.8,30.26,SSE,155,0.0,13.3,51,0.00,,---,0.00,VWS V14.01,2013-06-01 14:52:00,
2013-06-01 08:53:00,50.7,29.7,29.48,SE,135,0.0,11.2,44,0.00,,---,7.76,VWS V14.01,2013-06-01 14:53:00,
2013-06-01 08:54:00,55.5,37.6,30.26,ENE,58,2.8,7.8,51,0.00,,---,0.00,VWS V14.01,2013-06-01 14:54:00,
2013-06-01 08:55:00,55.4,37.3,30.26,ENE,58,0.0,1.4,50,0.00,,---,0.00,VWS V14.01,2013-06-01 14:55:00,
2013-06-01 08:56:00,55.5,37.6,30.26,ENE,58,0.0,0.0,51,0.00,,---,0.00,VWS V14.01,2013-06-01 14:56:00,
2013-06-01 08:57:00,55.5,37.5,30.26,SE,127,3.4,6.3,51,0.00,,---,0.00,VWS V14.01,2013-06-01 14:57:00,
2013-06-01 08:58:00,55.6,37.4,30.26,SSE,149,0.0,4.5,50,0.00,,---,0.00,VWS V14.01,2013-06-01 14:58:00,
2013-06-01 08:59:00,50.9,41.5,30.22,SE,135,0.0,1.4,70,0.00,,---,0.00,VWS V14.01,2013-06-01 14:59:00,
2013-06-01 09:00:00,55.7,37.5,30.25,ESE,117,3.2,3.2,50,0.00,,---,0.00,VWS V14.01,2013-06-01 15:00:00,
2013-06-01 09:01:00,52.6,42.1,30.23,SE,135,0.0,0.0,67,0.00,,---,0.00,VWS V14.01,2013-06-01 15:01:00,
2013-06-01 09:02:00,52.7,31.0,30.24,SE,135,0.0,0.0,43,0.00,,---,99.99,VWS V14.01,2013-06-01 15:02:00,
2013-06-01 09:03:00,52.7,41.9,30.24,SE,135,0.0,0.0,67,0.00,,---,0.00,VWS V14.01,2013-06-01 15:03:00,
2013-06-01 09:04:00,51.2,39.7,29.76,North,0,0.0,0.0,64,0.00,,---,0.00,VWS V14.01,2013-06-01 15:04:00,
2013-06-01 09:05:00,71.1,49.6,0.00,East,90,0.0,9.4,46,0.00,,---,0.48,VWS V14.01,2013-06-01 15:05:00,
2013-06-01 09:06:00,56.3,38.2,30.26,East,96,3.3,5.2,51,0.00,,---,0.00,VWS V14.01,2013-06-01 15:06:00,
2013-06-01 09:07:00,56.3,37.6,30.25,East,96,0.0,4.2,49,0.00,,---,0.00,VWS V14.01,2013-06-01 15:07:00,
2013-06-01 09:08:00,53.4,0.0,1.49,SE,135,13.2,13.2,0,0.00,,---,0.00,VWS V14.01,2013-06-01 15:08:00,
2013-06-01 09:09:00,56.4,37.5,30.25,East,86,0.0,5.2,49,0.00,,---,0.00,VWS V14.01,2013-06-01 15:09:00,
2013-06-01 09:10:00,53.5,41.8,30.25,North,0,0.0,0.0,64,0.00,,---,0.00,VWS V14.01,2013-06-01 15:10:00,
2013-06-01 09:11:00,54.8,39.5,30.25,SE,132,5.1,13.3,56,0.00,,---,0.00,VWS V14.01,2013-06-01 15:11:00,
2013-06-01 09:12:00,51.6,42.1,30.23,SE,135,0.0,0.7,70,0.00,,---,7.78,VWS V14.01,2013-06-01 15:12:00,
2013-06-01 09:13:00,53.8,40.7,30.25,SE,135,0.0,0.0,61,0.00,,---,99.99,VWS V14.01,2013-06-01 15:13:00,
2013-06-01 09:14:00,56.6,37.0,30.26,ENE,60,0.0,5.7,48,0.00,,---,0.00,VWS V14.01,2013-06-01 15:14:00,
2013-06-01 09:15:00,56.6,37.0,30.26,NE,45,3.0,4.3,48,0.09,,---,0.00,VWS V14.01,2013-06-01 15:15:00,
2013-06-01 09:16:00,71.1,50.2,0.00,North,8,0.0,3.0,48,0.00,,---,0.00,VWS V14.01,2013-06-01 15:16:00,
2013-06-01 09:17:00,54.2,40.2,30.25,SE,135,0.0,2.7,59,0.00,,---,99.99,VWS V14.01,2013-06-01 15:17:00,
2013-06-01 09:18:00,51.9,31.5,29.48,SE,135,0.0,15.8,45,0.00,,---,7.66,VWS V14.01,2013-06-01 15:18:00,
2013-06-01 09:19:00,56.8,37.2,30.26,NE,45,3.5,3.5,48,0.00,,---,0.00,VWS V14.01,2013-06-01 15:19:00,
2013-06-01 09:20:00,54.5,32.6,30.25,ESE,115,4.7,6.9,43,1.23,,---,99.99,VWS V14.01,2013-06-01 15:20:00,
2013-06-01 09:21:00,54.6,40.1,30.25,ENE,59,2.9,6.9,58,0.00,,---,99.99,VWS V14.01,2013-06-01 15:21:00,
2013-06-01 09:22:00,56.9,0.0,30.87,NE,38,0.0,3.0,0,0.00,,---,0.00,VWS V14.01,2013-06-01 15:22:00,
2013-06-01 09:23:00,57.0,37.7,30.24,NNE,28,0.0,3.1,48,0.00,,---,5.63,VWS V14.01,2013-06-01 15:23:00,
2013-06-01 09:24:00,52.2,42.2,0.28,SE,135,0.0,13.3,69,0.00,,---,0.00,VWS V14.01,2013-06-01 15:24:00,
2013-06-01 09:25:00,55.0,38.3,30.25,NE,41,6.0,6.0,53,0.00,,---,99.99,VWS V14.01,2013-06-01 15:25:00,
2013-06-01 09:26:00,55.1,33.1,30.25,NE,51,0.0,9.4,43,0.00,,---,99.99,VWS V14.01,2013-06-01 15:26:00,
2013-06-01 09:27:00,71.1,48.6,0.00,NE,51,0.0,2.2,45,0.00,,---,99.99,VWS V14.01,2013-06-01 15:27:00,
2013-06-01 09:28:00,57.1,37.2,30.26,NE,49,0.0,0.0,47,0.00,,---,0.73,VWS V14.01,2013-06-01 15:28:00,
2013-06-01 09:29:00,55.4,37.5,30.26,NNE,27,4.7,10.3,51,0.00,,---,99.99,VWS V14.01,2013-06-01 15:29:00,
2013-06-01 09:30:00,52.5,32.3,0.00,SE,135,0.0,9.4,46,0.00,,---,7.54,VWS V14.01,2013-06-01 15:30:00,
2013-06-01 09:31:00,55.6,37.4,30.26,SSE,149,3.2,4.5,50,0.00,,---,99.99,VWS V14.01,2013-06-01 15:31:00,
2013-06-01 09:32:00,55.7,37.6,30.25,NE,41,0.0,2.2,50,0.00,,---,99.99,VWS V14.01,2013-06-01 15:32:00,
2013-06-01 09:33:00,57.1,36.6,30.25,North,11,0.0,0.0,46,0.00,,---,0.00,VWS V14.01,2013-06-01 15:33:00,
2013-06-01 09:34:00,57.2,38.4,30.26,North,11,0.0,0.5,49,0.00,,---,5.74,VWS V14.01,2013-06-01 15:34:00,
2013-06-01 09:35:00,57.2,36.8,30.26,North,11,0.0,1.4,46,0.00,,---,0.00,VWS V14.01,2013-06-01 15:35:00,
2013-06-01 09:36:00,52.7,32.6,0.00,SE,135,0.0,6.0,46,0.00,,---,7.53,VWS V14.01,2013-06-01 15:36:00,
2013-06-01 09:37:00,56.2,38.2,30.26,East,90,0.0,9.4,51,0.53,,---,99.99,VWS V14.01,2013-06-01 15:37:00,
2013-06-01 09:38:00,56.0,44.2,0.25,ESE,117,0.0,0.0,65,0.00,,---,0.00,VWS V14.01,2013-06-01 15:38:00,
2013-06-01 09:39:00,56.4,37.5,30.26,East,90,0.0,5.2,49,0.00,,---,99.99,VWS V14.01,2013-06-01 15:39:00,
2013-06-01 09:40:00,56.5,-32.0,1.62,ENE,69,0.0,6.7,2,0.00,,---,99.99,VWS V14.01,2013-06-01 15:40:00,
2013-06-01 09:41:00,52.7,41.4,30.24,SE,135,0.0,0.0,65,0.00,,---,0.00,VWS V14.01,2013-06-01 15:41:00,
2013-06-01 09:42:00,55.6,37.4,30.55,SSE,149,0.0,4.5,50,0.00,,---,0.00,VWS V14.01,2013-06-01 15:42:00,
2013-06-01 09:43:00,57.4,39.4,30.25,ENE,66,8.8,11.7,51,0.00,,---,5.14,VWS V14.01,2013-06-01 15:43:00,
2013-06-01 09:44:00,55.7,37.6,0.09,NE,41,0.0,2.2,50,0.00,,---,0.00,VWS V14.01,2013-06-01 15:44:00,
2013-06-01 09:45:00,57.0,37.7,0.00,NNE,28,0.0,3.1,48,0.28,,---,5.85,VWS V14.01,2013-06-01 15:45:00,
2013-06-01 09:46:00,49.7,38.5,0.28,SE,135,0.0,9.4,65,0.00,,---,0.00,VWS V14.01,2013-06-01 15:46:00,
2013-06-01 09:47:00,55.5,37.5,30.26,ENE,58,0.0,0.0,51,0.00,,---,0.00,VWS V14.01,2013-06-01 15:47:00,
2013-06-01 09:48:00,57.5,35.3,30.25,ENE,68,4.6,5.9,43,0.00,,---,0.00,VWS V14.01,2013-06-01 15:48:00,
2013-06-01 09:49:00,57.5,35.3,30.25,North,359,3.4,8.3,43,0.00,,---,0.00,VWS V14.01,2013-06-01 15:49:00,
2013-06-01 09:50:00,57.5,35.3,30.25,NE,48,0.0,5.9,43,0.00,,---,99.99,VWS V14.01,2013-06-01 15:50:00,
2013-06-01 09:51:00,57.5,35.1,30.25,NE,34,4.6,13.4,43,0.00,,---,0.00,VWS V14.01,2013-06-01 15:51:00,
2013-06-01 09:52:00,53.0,-9.2,0.00,SE,135,0.0,0.0,7,0.00,,---,0.00,VWS V14.01,2013-06-01 15:52:00,
2013-06-01 09:53:00,71.2,52.3,0.00,North,359,0.0,15.5,51,0.00,,---,0.00,VWS V14.01,2013-06-01 15:53:00,
2013-06-01 09:54:00,55.4,-7.4,30.26,SSE,155,0.0,13.3,7,0.00,,---,0.00,VWS V14.01,2013-06-01 15:54:00,
2013-06-01 09:55:00,49.7,27.9,30.25,North,359,0.0,1.4,42,0.00,,---,5.95,VWS V14.01,2013-06-01 15:55:00,
2013-06-01 09:56:00,57.5,39.5,0.00,North,359,0.0,5.2,51,0.00,,---,5.00,VWS V14.01,2013-06-01 15:56:00,
2013-06-01 09:57:00,57.5,34.6,30.25,North,359,0.0,9.4,42,0.00,,---,0.00,VWS V14.01,2013-06-01 15:57:00,
2013-06-01 09:58:00,53.4,33.6,30.25,SE,135,0.0,13.7,47,0.00,,---,7.33,VWS V14.01,2013-06-01 15:58:00,
2013-06-01 09:59:00,57.6,34.9,30.25,North,359,0.0,0.0,42,0.00,,---,0.00,VWS V14.01,2013-06-01 15:59:00,
2013-06-01 10:00:00,57.6,34.8,30.25,North,359,0.0,0.0,42,0.00,,---,0.00,VWS V14.01,2013-06-01 16:00:00,
2013-06-01 10:01:00,55.4,43.7,30.25,SSE,155,3.4,7.0,65,0.00,,---,5.30,VWS V14.01,2013-06-01 16:01:00,
2013-06-01 10:02:00,57.7,34.8,30.25,North,359,0.0,0.0,42,2.32,,---,0.00,VWS V14.01,2013-06-01 16:02:00,
2013-06-01 10:03:00,57.7,34.8,30.25,North,359,0.0,13.4,42,0.00,,---,0.00,VWS V14.01,2013-06-01 16:03:00,
2013-06-01 10:04:00,53.8,33.2,30.25,SE,135,0.0,0.0,46,0.00,,---,0.00,VWS V14.01,2013-06-01 16:04:00,
2013-06-01 10:05:00,57.8,14.1,30.25,North,359,0.0,0.0,18,0.00,,---,2.15,VWS V14.01,2013-06-01 16:05:00,
2013-06-01 10:06:00,57.8,35.1,30.25,North,359,0.0,0.0,42,0.00,,---,0.94,VWS V14.01,2013-06-01 16:06:00,
2013-06-01 10:07:00,57.9,14.2,30.25,North,359,0.0,5.1,18,0.00,,---,0.00,VWS V14.01,2013-06-01 16:07:00,
2013-06-01 10:08:00,57.9,34.5,30.25,North,359,0.0,0.0,41,0.00,,---,0.00,VWS V14.01,2013-06-01 16:08:00,
2013-06-01 10:09:00,54.3,40.0,30.25,SE,135,0.0,0.0,58,0.00,,---,5.17,VWS V14.01,2013-06-01 16:09:00,
2013-06-01 10:10:00,58.0,34.6,30.25,North,359,0.0,6.0,41,0.75,,---,0.00,VWS V14.01,2013-06-01 16:10:00,
2013-06-01 10:11:00,58.0,34.8,6.06,SE,139,0.0,0.0,42,0.00,,---,0.00,VWS V14.01,2013-06-01 16:11:00,
2013-06-01 10:12:00,58.0,34.8,30.25,North,359,0.0,5.2,42,0.00,,---,0.00,VWS V14.01,2013-06-01 16:12:00,
2013-06-01 10:13:00,58.0,34.7,30.25,North,359,0.0,15.8,41,0.00,,---,0.00,VWS V14.01,2013-06-01 16:13:00,
2013-06-01 10:14:00,58.0,34.8,30.25,North,359,0.0,5.1,42,0.00,,---,0.00,VWS V14.01,2013-06-01 16:14:00,
2013-06-01 10:15:00,54.8,35.7,0.15,NNE,27,3.2,7.1,48,0.00,,---,6.27,VWS V14.01,2013-06-01 16:15:00,
2013-06-01 10:16:00,58.0,34.8,30.25,North,359,0.0,15.8,42,0.00,,---,0.00,VWS V14.01,2013-06-01 16:16:00,
2013-06-01 10:17:00,58.1,35.1,30.25,North,0,0.0,0.0,42,0.00,,---,0.00,VWS V14.01,2013-06-01 16:17:00,
2013-06-01 10:18:00,60.3,37.0,0.00,SSW,212,0.0,0.0,42,0.00,,---,0.00,VWS V14.01,2013-06-01 16:18:00,
2013-06-01 10:19:00,58.4,35.1,30.25,North,359,0.0,15.8,42,0.00,,---,0.00,VWS V14.01,2013-06-01 16:19:00,
2013-06-01 10:20:00,58.4,35.1,30.25,North,359,0.0,9.4,41,0.00,,---,2.15,VWS V14.01,2013-06-01 16:20:00,
2013-06-01 10:21:00,55.3,38.5,30.25,NE,51,0.0,2.2,53,0.00,,---,5.29,VWS V14.01,2013-06-01 16:21:00,
2013-06-01 10:22:00,58.6,35.2,30.25,North,359,0.0,13.4,41,0.00,,---,0.00,VWS V14.01,2013-06-01 16:22:00,
2013-06-01 10:23:00,58.7,35.3,30.25,North,359,0.0,14.9,41,0.00,,---,0.00,VWS V14.01,2013-06-01 16:23:00,
2013-06-01 10:24:00,58.9,35.5,30.25,North,359,0.0,0.0,41,0.00,,---,0.23,VWS V14.01,2013-06-01 16:24:00,
2013-06-01 10:25:00,58.9,35.5,30.25,North,359,0.0,0.0,41,0.00,,---,0.00,VWS V14.01,2013-06-01 16:25:00,
2013-06-01 10:26:00,58.9,35.4,30.25,North,359,0.0,7.1,41,0.00,,---,0.00,VWS V14.01,2013-06-01 16:26:00,
2013-06-01 10:27:00,55.4,36.5,30.26,ENE,58,0.0,0.0,49,0.00,,---,5.87,VWS V14.01,2013-06-01 16:27:00,
2013-06-01 10:28:00,59.2,35.8,30.25,North,359,0.0,1.4,42,0.00,,---,0.04,VWS V14.01,2013-06-01 16:28:00,
2013-06-01 10:29:00,59.3,35.7,30.25,North,359,0.0,7.3,41,2.32,,---,0.00,VWS V14.01,2013-06-01 16:29:00,
2013-06-01 10:30:00,13.6,-5.8,0.00,North,0,14.5,14.5,41,0.00,,---,0.00,VWS V14.01,2013-06-01 16:30:00,
2013-06-01 10:31:00,59.5,35.4,30.25,North,0,0.0,0.0,40,0.00,,---,0.00,VWS V14.01,2013-06-01 16:31:00,
2013-06-01 10:32:00,59.5,35.4,30.25,North,359,0.0,0.0,40,0.00,,---,0.00,VWS V14.01,2013-06-01 16:32:00,
2013-06-01 10:33:00,59.7,35.5,30.25,North,359,0.0,0.0,40,0.00,,---,4.82,VWS V14.01,2013-06-01 16:33:00,
2013-06-01 10:34:00,59.7,35.4,30.25,North,359,0.0,0.0,40,0.00,,---,0.00,VWS V14.01,2013-06-01 16:34:00,
2013-06-01 10:35:00,56.3,37.8,30.26,East,96,0.0,5.2,50,0.00,,---,5.83,VWS V14.01,2013-06-01 16:35:00,
2013-06-01 10:36:00,59.8,35.4,30.25,North,359,0.0,0.0,40,0.00,,---,0.00,VWS V14.01,2013-06-01 16:36:00,
2013-06-01 10:37:00,59.8,35.0,30.25,North,359,0.0,1.4,39,0.00,,---,0.00,VWS V14.01,2013-06-01 16:37:00,
2013-06-01 10:38:00,59.8,34.9,30.25,North,359,0.0,13.5,39,0.00,,---,0.00,VWS V14.01,2013-06-01 16:38:00,
2013-06-01 10:39:00,59.8,34.9,30.25,North,359,0.0,13.4,39,0.00,,---,0.00,VWS V14.01,2013-06-01 16:39:00,
2013-06-01 10:40:00,59.8,34.9,30.25,North,359,0.0,13.4,39,0.00,,---,0.00,VWS V14.01,2013-06-01 16:40:00,
2013-06-01 10:41:00,56.7,37.4,30.26,East,86,0.0,0.0,48,0.00,,---,5.63,VWS V14.01,2013-06-01 16:41:00,
2013-06-01 10:42:00,59.8,15.7,30.25,North,359,0.0,0.0,18,0.00,,---,0.00,VWS V14.01,2013-06-01 16:42:00,
2013-06-01 10:43:00,59.8,35.3,30.25,North,359,0.0,0.0,40,0.00,,---,0.00,VWS V14.01,2013-06-01 16:43:00,
2013-06-01 10:44:00,59.9,35.3,30.25,North,359,0.0,0.0,40,0.00,,---,0.00,VWS V14.01,2013-06-01 16:44:00,
2013-06-01 10:45:00,59.9,35.2,30.25,North,359,0.0,0.0,39,0.00,,---,0.00,VWS V14.01,2013-06-01 16:45:00,
2013-06-01 10:46:00,59.9,34.8,30.25,North,359,0.0,0.0,39,0.00,,---,0.00,VWS V14.01,2013-06-01 16:46:00,
2013-06-01 10:47:00,13.6,3.9,0.00,North,0,5.0,5.2,65,0.00,,---,5.65,VWS V14.01,2013-06-01 16:47:00,
2013-06-01 10:48:00,60.0,34.9,30.25,North,359,0.0,0.0,39,0.00,,---,0.00,VWS V14.01,2013-06-01 16:48:00,
2013-06-01 10:49:00,59.9,34.5,30.25,North,359,0.0,0.0,38,0.00,,---,0.00,VWS V14.01,2013-06-01 16:49:00,
2013-06-01 10:50:00,13.6,-0.2,0.00,North,0,13.0,13.0,53,0.00,,---,4.65,VWS V14.01,2013-06-01 16:50:00,
2013-06-01 10:51:00,59.9,34.5,30.26,North,359,0.0,0.0,38,0.00,,---,0.00,VWS V14.01,2013-06-01 16:51:00,
2013-06-01 10:52:00,59.9,34.6,30.25,North,359,0.0,0.0,38,0.00,,---,0.00,VWS V14.01,2013-06-01 16:52:00,
2013-06-01 10:53:00,57.3,36.4,30.26,ENE,65,4.5,6.3,45,0.00,,---,5.78,VWS V14.01,2013-06-01 16:53:00,
2013-06-01 10:54:00,60.0,34.6,30.26,North,359,0.0,8.8,38,0.00,,---,6.54,VWS V14.01,2013-06-01 16:54:00,
2013-06-01 10:55:00,60.0,34.4,30.26,North,359,0.0,8.8,38,0.00,,---,0.00,VWS V14.01,2013-06-01 16:55:00,
2013-06-01 10:56:00,60.0,34.3,30.26,North,359,0.0,13.4,38,0.00,,---,0.00,VWS V14.01,2013-06-01 16:56:00,
2013-06-01 10:57:00,60.0,34.3,30.26,North,359,0.0,0.0,38,0.00,,---,0.00,VWS V14.01,2013-06-01 16:57:00,
2013-06-01 10:58:00,60.1,34.4,30.26,North,359,0.0,0.0,38,0.00,,---,0.00,VWS V14.01,2013-06-01 16:58:00,
2013-06-01 10:59:00,60.1,34.3,30.26,North,359,0.0,0.0,38,0.00,,---,0.00,VWS V14.01,2013-06-01 16:59:00,
2013-06-01 11:00:00,60.1,34.1,30.26,North,359,0.0,13.4,38,0.00,,---,0.00,VWS V14.01,2013-06-01 17:00:00,
2013-06-01 11:01:00,57.6,35.2,30.25,NE,34,6.5,15.7,43,0.00,,---,5.09,VWS V14.01,2013-06-01 17:01:00,
2013-06-01 11:02:00,60.3,34.6,30.25,North,359,0.0,0.0,38,0.00,,---,2.04,VWS V14.01,2013-06-01 17:02:00,
2013-06-01 11:03:00,58.0,34.7,30.25,North,359,0.0,14.8,41,0.00,,---,6.14,VWS V14.01,2013-06-01 17:03:00,
2013-06-01 11:04:00,60.3,34.2,30.26,North,359,0.0,12.3,37,0.00,,---,0.00,VWS V14.01,2013-06-01 17:04:00,
2013-06-01 11:05:00,60.5,34.4,30.25,North,359,0.0,1.4,37,0.00,,---,0.00,VWS V14.01,2013-06-01 17:05:00,
2013-06-01 11:06:00,71.2,55.9,1.83,North,0,9.4,9.4,58,0.00,,---,1.51,VWS V14.01,2013-06-01 17:06:00,
2013-06-01 11:07:00,57.6,39.7,30.25,North,359,0.0,0.0,51,0.00,,---,5.00,VWS V14.01,2013-06-01 17:07:00,
2013-06-01 11:08:00,60.6,0.0,30.70,North,359,0.0,0.0,0,0.00,,---,1.94,VWS V14.01,2013-06-01 17:08:00,
2013-06-01 11:09:00,60.7,34.2,30.26,North,359,0.0,12.1,37,0.00,,---,0.00,VWS V14.01,2013-06-01 17:09:00,
2013-06-01 11:10:00,60.7,34.1,30.25,North,359,0.0,15.8,37,0.00,,---,0.00,VWS V14.01,2013-06-01 17:10:00,
2013-06-01 11:11:00,60.9,34.3,30.25,North,359,0.0,0.0,37,0.00,,---,0.00,VWS V14.01,2013-06-01 17:11:00,
2013-06-01 11:12:00,57.9,40.1,30.25,North,359,0.0,0.0,51,0.00,,---,4.91,VWS V14.01,2013-06-01 17:12:00,
2013-06-01 11:13:00,61.1,34.7,30.25,North,359,0.0,0.0,37,0.00,,---,0.00,VWS V14.01,2013-06-01 17:13:00,
2013-06-01 11:14:00,61.2,34.7,30.25,North,359,0.0,9.4,37,0.00,,---,0.00,VWS V14.01,2013-06-01 17:14:00,
2013-06-01 11:15:00,61.4,17.0,30.25,North,359,0.0,11.9,18,0.00,,---,99.99,VWS V14.01,2013-06-01 17:15:00,
2013-06-01 11:16:00,61.5,34.7,30.25,North,359,0.0,0.0,37,0.00,,---,0.00,VWS V14.01,2013-06-01 17:16:00,
2013-06-01 11:17:00,61.7,35.0,30.25,North,359,0.0,0.0,37,0.00,,---,0.00,VWS V14.01,2013-06-01 17:17:00,
2013-06-01 11:18:00,61.9,34.8,30.25,North,359,0.0,0.0,36,0.00,,---,0.00,VWS V14.01,2013-06-01 17:18:00,
2013-06-01 11:19:00,62.0,34.5,30.25,North,359,0.0,10.3,36,2.32,,---,0.00,VWS V14.01,2013-06-01 17:19:00,
2013-06-01 11:20:00,58.5,24.1,30.25,North,359,0.0,9.4,26,0.00,,---,4.95,VWS V14.01,2013-06-01 17:20:00,
2013-06-01 11:21:00,62.0,34.1,30.25,North,359,0.0,0.0,35,0.00,,---,0.00,VWS V14.01,2013-06-01 17:21:00,
2013-06-01 11:22:00,62.0,34.2,30.25,North,359,0.0,10.9,35,0.00,,---,0.00,VWS V14.01,2013-06-01 17:22:00,
2013-06-01 11:23:00,62.0,34.1,30.25,North,359,0.0,0.0,35,0.00,,---,0.00,VWS V14.01,2013-06-01 17:23:00,
2013-06-01 11:24:00,62.0,0.0,2.02,WSW,252,0.0,0.0,0,0.00,,---,0.00,VWS V14.01,2013-06-01 17:24:00,
2013-06-01 11:25:00,61.9,34.4,30.26,North,359,0.0,10.7,36,0.00,,---,0.00,VWS V14.01,2013-06-01 17:25:00,
2013-06-01 11:26:00,59.2,42.0,30.24,North,359,0.0,1.4,53,0.00,,---,4.94,VWS V14.01,2013-06-01 17:26:00,
2013-06-01 11:27:00,61.9,34.0,30.25,North,359,0.0,0.0,35,0.00,,---,0.00,VWS V14.01,2013-06-01 17:27:00,
2013-06-01 11:28:00,61.8,34.0,30.25,North,359,0.0,0.0,35,0.00,,---,0.00,VWS V14.01,2013-06-01 17:28:00,
2013-06-01 11:29:00,61.8,34.3,30.25,North,359,0.0,0.0,36,0.00,,---,0.00,VWS V14.01,2013-06-01 17:29:00,
2013-06-01 11:30:00,61.9,34.0,30.25,North,359,0.0,11.1,35,0.00,,---,4.32,VWS V14.01,2013-06-01 17:30:00,
2013-06-01 11:31:00,62.0,34.3,30.25,North,359,0.0,1.4,35,0.00,,---,0.23,VWS V14.01,2013-06-01 17:31:00,
2013-06-01 11:32:00,59.8,42.8,30.25,North,359,0.0,0.0,53,0.00,,---,4.79,VWS V14.01,2013-06-01 17:32:00,
2013-06-01 11:33:00,13.6,-9.0,0.00,North,0,10.8,11.2,35,0.00,,---,0.00,VWS V14.01,2013-06-01 17:33:00,
2013-06-01 11:34:00,24.0,0.1,30.25,North,0,0.0,1.4,35,0.00,,---,0.00,VWS V14.01,2013-06-01 17:34:00,
2013-06-01 11:35:00,62.2,34.2,30.25,North,359,0.0,0.0,35,0.00,,---,0.00,VWS V14.01,2013-06-01 17:35:00,
2013-06-01 11:36:00,62.3,34.3,30.25,North,359,0.0,1.4,35,0.00,,---,0.00,VWS V14.01,2013-06-01 17:36:00,
2013-06-01 11:37:00,62.4,34.6,30.25,North,359,0.0,0.0,35,0.00,,---,0.00,VWS V14.01,2013-06-01 17:37:00,
2013-06-01 11:38:00,59.8,15.7,30.25,North,359,0.0,0.0,18,0.00,,---,99.99,VWS V14.01,2013-06-01 17:38:00,
2013-06-01 11:39:00,62.7,34.3,30.25,North,359,0.0,1.4,34,1.46,,---,0.00,VWS V14.01,2013-06-01 17:39:00,
2013-06-01 11:40:00,49.7,20.2,30.25,North,359,0.0,0.0,31,0.00,,---,4.25,VWS V14.01,2013-06-01 17:40:00,
2013-06-01 11:41:00,63.0,34.3,30.25,North,359,0.0,0.0,34,0.00,,---,0.00,VWS V14.01,2013-06-01 17:41:00,
2013-06-01 11:45:00,59.9,42.9,30.25,North,359,0.0,0.0,53,0.00,,---,4.64,VWS V14.01,2013-06-01 17:45:00,
2013-06-01 11:51:00,60.0,34.6,30.26,North,359,0.0,8.8,38,0.00,,---,4.64,VWS V14.01,2013-06-01 17:51:00,
2013-06-01 11:57:00,60.1,34.3,30.26,North,359,0.0,0.0,38,0.00,,---,4.58,VWS V14.01,2013-06-01 17:57:00,
2013-06-01 12:04:00,60.4,34.2,30.26,North,359,0.0,12.3,37,0.00,,---,0.00,VWS V14.01,2013-06-01 18:04:00,
2013-06-01 12:07:00,61.9,34.6,30.25,North,359,0.0,0.0,36,0.00,,---,4.39,VWS V14.01,2013-06-01 18:07:00,
2013-06-01 12:08:00,62.1,46.0,30.25,North,359,0.0,0.0,56,0.00,,---,4.35,VWS V14.01,2013-06-01 18:08:00,
2013-06-01 12:10:00,60.7,44.1,30.24,North,359,0.0,0.0,54,0.00,,---,4.50,VWS V14.01,2013-06-01 18:10:00,
2013-06-01 12:15:00,61.1,28.6,30.25,North,359,0.0,0.0,29,0.00,,---,4.50,VWS V14.01,2013-06-01 18:15:00,
2013-06-01 23:59:00,60.1,15.8,30.07,NNW,338,0.0,0.0,18,0.00,,---,0.00,VWS V14.01,2013-06-02 05:59:00,